sensor_id;sensor_type;location;lat;lon;timestamp;pressure;altitude;pressure_sealevel;temperature;humidity
59531;BME280;45349;48.692;8.186;2023-03-23T00:00:52;98069.22;;;13.33;61.50
59531;BME280;45349;48.692;8.186;2023-03-23T00:03:20;98056.75;;;13.35;61.75
59531;BME280;45349;48.692;8.186;2023-03-23T00:05:47;98053.13;;;13.36;62.02
59531;BME280;45349;48.692;8.186;2023-03-23T00:08:16;98058.38;;;13.36;61.95
59531;BME280;45349;48.692;8.186;2023-03-23T00:10:43;98059.63;;;13.40;60.46
59531;BME280;45349;48.692;8.186;2023-03-23T00:13:11;98054.31;;;13.49;59.36
59531;BME280;45349;48.692;8.186;2023-03-23T00:15:38;98057.47;;;13.59;58.96
59531;BME280;45349;48.692;8.186;2023-03-23T00:18:06;98046.03;;;13.67;58.83
59531;BME280;45349;48.692;8.186;2023-03-23T00:20:33;98043.69;;;13.72;58.43
59531;BME280;45349;48.692;8.186;2023-03-23T00:23:06;98047.38;;;13.78;57.80
59531;BME280;45349;48.692;8.186;2023-03-23T00:25:33;98050.56;;;13.95;55.36
59531;BME280;45349;48.692;8.186;2023-03-23T00:28:00;98047.25;;;13.86;57.13
59531;BME280;45349;48.692;8.186;2023-03-23T00:30:29;98049.06;;;13.85;57.08
59531;BME280;45349;48.692;8.186;2023-03-23T00:32:58;98061.19;;;13.86;57.62
59531;BME280;45349;48.692;8.186;2023-03-23T00:35:26;98055.31;;;13.84;58.04
59531;BME280;45349;48.692;8.186;2023-03-23T00:37:53;98049.13;;;13.92;56.51
59531;BME280;45349;48.692;8.186;2023-03-23T00:40:20;98039.38;;;13.86;57.26
59531;BME280;45349;48.692;8.186;2023-03-23T00:42:47;98040.13;;;13.80;58.28
59531;BME280;45349;48.692;8.186;2023-03-23T00:45:13;98031.88;;;13.83;57.84
59531;BME280;45349;48.692;8.186;2023-03-23T00:47:41;98039.13;;;13.81;58.62
59531;BME280;45349;48.692;8.186;2023-03-23T00:50:12;98025.56;;;13.77;58.22
59531;BME280;45349;48.692;8.186;2023-03-23T00:52:39;98033.66;;;13.76;58.03
59531;BME280;45349;48.692;8.186;2023-03-23T00:55:06;98029.44;;;13.81;56.78
59531;BME280;45349;48.692;8.186;2023-03-23T00:57:33;98020.38;;;13.84;57.42
59531;BME280;45349;48.692;8.186;2023-03-23T00:59:59;98018.75;;;13.83;56.97
59531;BME280;45349;48.692;8.186;2023-03-23T01:02:26;98016.63;;;13.93;55.38
59531;BME280;45349;48.692;8.186;2023-03-23T01:04:54;98025.72;;;13.91;57.18
59531;BME280;45349;48.692;8.186;2023-03-23T01:07:21;98009.47;;;14.02;56.92
59531;BME280;45349;48.692;8.186;2023-03-23T01:09:49;98013.00;;;13.94;57.67
59531;BME280;45349;48.692;8.186;2023-03-23T01:12:18;98016.75;;;14.07;56.31
59531;BME280;45349;48.692;8.186;2023-03-23T01:14:45;98019.34;;;14.00;56.79
59531;BME280;45349;48.692;8.186;2023-03-23T01:17:13;98013.59;;;14.11;55.64
59531;BME280;45349;48.692;8.186;2023-03-23T01:19:39;98007.59;;;14.17;56.24
59531;BME280;45349;48.692;8.186;2023-03-23T01:22:08;98005.75;;;14.18;57.05
59531;BME280;45349;48.692;8.186;2023-03-23T01:24:35;98006.38;;;14.20;55.33
59531;BME280;45349;48.692;8.186;2023-03-23T01:27:02;98000.50;;;14.18;56.69
59531;BME280;45349;48.692;8.186;2023-03-23T01:29:32;97993.63;;;14.17;57.13
59531;BME280;45349;48.692;8.186;2023-03-23T01:31:58;97995.47;;;14.16;55.90
59531;BME280;45349;48.692;8.186;2023-03-23T01:34:25;97970.03;;;14.17;56.57
59531;BME280;45349;48.692;8.186;2023-03-23T01:36:52;97976.03;;;14.11;57.34
59531;BME280;45349;48.692;8.186;2023-03-23T01:39:20;97968.16;;;14.11;57.00
59531;BME280;45349;48.692;8.186;2023-03-23T01:41:46;97966.53;;;14.10;57.44
59531;BME280;45349;48.692;8.186;2023-03-23T01:47:23;97964.34;;;14.13;56.48
59531;BME280;45349;48.692;8.186;2023-03-23T01:49:52;97966.91;;;14.07;56.73
59531;BME280;45349;48.692;8.186;2023-03-23T01:52:22;97963.91;;;14.10;57.27
59531;BME280;45349;48.692;8.186;2023-03-23T01:54:54;97963.53;;;14.13;57.40
59531;BME280;45349;48.692;8.186;2023-03-23T01:57:23;97957.09;;;14.15;56.34
59531;BME280;45349;48.692;8.186;2023-03-23T01:59:54;97940.72;;;14.13;57.04
59531;BME280;45349;48.692;8.186;2023-03-23T02:02:25;97947.84;;;14.20;56.43
59531;BME280;45349;48.692;8.186;2023-03-23T02:04:59;97939.22;;;14.26;55.56
59531;BME280;45349;48.692;8.186;2023-03-23T02:07:31;97943.50;;;14.40;55.08
59531;BME280;45349;48.692;8.186;2023-03-23T02:10:01;97925.53;;;14.37;55.61
59531;BME280;45349;48.692;8.186;2023-03-23T02:12:32;97932.84;;;14.42;56.07
59531;BME280;45349;48.692;8.186;2023-03-23T02:14:59;97923.66;;;14.59;54.36
59531;BME280;45349;48.692;8.186;2023-03-23T02:17:31;97921.25;;;14.65;54.52
59531;BME280;45349;48.692;8.186;2023-03-23T02:20:17;97908.13;;;14.65;54.84
59531;BME280;45349;48.692;8.186;2023-03-23T02:23:03;97906.38;;;14.72;54.59
59531;BME280;45349;48.692;8.186;2023-03-23T02:25:52;97914.44;;;14.70;54.56
59531;BME280;45349;48.692;8.186;2023-03-23T02:28:53;97915.25;;;14.71;54.22
59531;BME280;45349;48.692;8.186;2023-03-23T02:31:46;97902.53;;;14.74;54.14
59531;BME280;45349;48.692;8.186;2023-03-23T02:34:20;97895.25;;;14.70;54.57
59531;BME280;45349;48.692;8.186;2023-03-23T02:36:55;97906.53;;;14.70;53.95
59531;BME280;45349;48.692;8.186;2023-03-23T02:39:25;97909.00;;;14.79;53.60
59531;BME280;45349;48.692;8.186;2023-03-23T02:41:57;97908.38;;;14.76;54.95
59531;BME280;45349;48.692;8.186;2023-03-23T02:44:27;97909.41;;;14.75;54.88
59531;BME280;45349;48.692;8.186;2023-03-23T02:46:57;97896.88;;;14.78;54.65
59531;BME280;45349;48.692;8.186;2023-03-23T02:49:29;97895.06;;;14.78;54.49
59531;BME280;45349;48.692;8.186;2023-03-23T02:51:59;97901.94;;;14.79;54.28
59531;BME280;45349;48.692;8.186;2023-03-23T02:54:28;97901.75;;;14.81;54.37
59531;BME280;45349;48.692;8.186;2023-03-23T02:56:56;97892.44;;;14.78;54.41
59531;BME280;45349;48.692;8.186;2023-03-23T02:59:29;97899.94;;;14.88;53.44
59531;BME280;45349;48.692;8.186;2023-03-23T03:02:05;97905.19;;;14.81;54.50
59531;BME280;45349;48.692;8.186;2023-03-23T03:04:35;97897.09;;;14.83;53.73
59531;BME280;45349;48.692;8.186;2023-03-23T03:07:26;97887.84;;;14.94;53.60
59531;BME280;45349;48.692;8.186;2023-03-23T03:09:58;97893.53;;;14.97;53.10
59531;BME280;45349;48.692;8.186;2023-03-23T03:12:32;97900.19;;;15.00;53.06
59531;BME280;45349;48.692;8.186;2023-03-23T03:15:09;97892.13;;;15.08;52.41
59531;BME280;45349;48.692;8.186;2023-03-23T03:17:41;97887.09;;;15.13;52.38
59531;BME280;45349;48.692;8.186;2023-03-23T03:20:12;97887.69;;;15.15;52.42
59531;BME280;45349;48.692;8.186;2023-03-23T03:22:42;97895.38;;;15.10;52.18
59531;BME280;45349;48.692;8.186;2023-03-23T03:25:11;97886.06;;;15.14;51.83
59531;BME280;45349;48.692;8.186;2023-03-23T03:27:41;97899.81;;;15.10;51.51
59531;BME280;45349;48.692;8.186;2023-03-23T03:30:17;97895.81;;;15.20;51.31
59531;BME280;45349;48.692;8.186;2023-03-23T03:32:48;97897.19;;;15.16;51.84
59531;BME280;45349;48.692;8.186;2023-03-23T03:35:18;97900.03;;;15.15;52.55
59531;BME280;45349;48.692;8.186;2023-03-23T03:37:44;97894.19;;;15.19;51.08
59531;BME280;45349;48.692;8.186;2023-03-23T03:40:14;97886.94;;;15.28;50.56
59531;BME280;45349;48.692;8.186;2023-03-23T03:42:43;97901.66;;;15.23;52.01
59531;BME280;45349;48.692;8.186;2023-03-23T03:45:12;97900.66;;;15.24;50.52
59531;BME280;45349;48.692;8.186;2023-03-23T03:47:39;97896.22;;;15.24;51.01
59531;BME280;45349;48.692;8.186;2023-03-23T03:50:06;97899.06;;;15.29;51.42
59531;BME280;45349;48.692;8.186;2023-03-23T03:52:36;97901.47;;;15.24;51.04
59531;BME280;45349;48.692;8.186;2023-03-23T03:55:04;97897.84;;;15.25;51.71
59531;BME280;45349;48.692;8.186;2023-03-23T03:57:32;97909.16;;;15.19;50.96
59531;BME280;45349;48.692;8.186;2023-03-23T04:00:12;97890.16;;;15.24;50.85
59531;BME280;45349;48.692;8.186;2023-03-23T04:02:44;97898.28;;;15.35;50.17
59531;BME280;45349;48.692;8.186;2023-03-23T04:05:13;97894.22;;;15.46;50.67
59531;BME280;45349;48.692;8.186;2023-03-23T04:07:43;97889.38;;;15.43;50.84
59531;BME280;45349;48.692;8.186;2023-03-23T04:10:11;97887.31;;;15.39;50.67
59531;BME280;45349;48.692;8.186;2023-03-23T04:12:40;97902.31;;;15.31;51.04
59531;BME280;45349;48.692;8.186;2023-03-23T04:15:30;97903.72;;;15.34;50.39
59531;BME280;45349;48.692;8.186;2023-03-23T04:17:57;97897.66;;;15.40;49.87
59531;BME280;45349;48.692;8.186;2023-03-23T04:20:27;97898.06;;;15.44;50.31
59531;BME280;45349;48.692;8.186;2023-03-23T04:22:56;97900.69;;;15.37;51.45
59531;BME280;45349;48.692;8.186;2023-03-23T04:25:25;97907.56;;;15.31;51.28
59531;BME280;45349;48.692;8.186;2023-03-23T04:27:54;97905.91;;;15.24;51.02
59531;BME280;45349;48.692;8.186;2023-03-23T04:33:03;97915.00;;;15.14;51.84
59531;BME280;45349;48.692;8.186;2023-03-23T04:35:30;97916.00;;;15.13;51.56
59531;BME280;45349;48.692;8.186;2023-03-23T04:38:15;97919.22;;;15.09;52.86
59531;BME280;45349;48.692;8.186;2023-03-23T04:40:49;97914.94;;;15.01;52.89
59531;BME280;45349;48.692;8.186;2023-03-23T04:43:32;97928.09;;;15.01;53.00
59531;BME280;45349;48.692;8.186;2023-03-23T04:46:16;97909.69;;;14.94;52.45
59531;BME280;45349;48.692;8.186;2023-03-23T04:48:46;97911.69;;;14.99;53.54
59531;BME280;45349;48.692;8.186;2023-03-23T04:51:18;97912.31;;;14.94;52.80
59531;BME280;45349;48.692;8.186;2023-03-23T04:53:50;97927.00;;;14.82;53.36
59531;BME280;45349;48.692;8.186;2023-03-23T04:56:17;97928.38;;;14.71;54.05
59531;BME280;45349;48.692;8.186;2023-03-23T04:58:44;97924.94;;;14.70;54.62
59531;BME280;45349;48.692;8.186;2023-03-23T05:01:14;97923.44;;;14.61;55.81
59531;BME280;45349;48.692;8.186;2023-03-23T05:03:57;97918.16;;;14.54;54.92
59531;BME280;45349;48.692;8.186;2023-03-23T05:06:25;97918.78;;;14.56;55.77
59531;BME280;45349;48.692;8.186;2023-03-23T05:08:59;97920.13;;;14.45;56.73
59531;BME280;45349;48.692;8.186;2023-03-23T05:11:26;97926.97;;;14.40;56.38
59531;BME280;45349;48.692;8.186;2023-03-23T05:13:54;97942.72;;;14.40;56.75
59531;BME280;45349;48.692;8.186;2023-03-23T05:16:22;97927.91;;;14.32;58.31
59531;BME280;45349;48.692;8.186;2023-03-23T05:18:48;97929.47;;;14.20;60.51
59531;BME280;45349;48.692;8.186;2023-03-23T05:21:17;97926.78;;;14.13;60.07
59531;BME280;45349;48.692;8.186;2023-03-23T05:23:48;97932.31;;;13.96;62.39
59531;BME280;45349;48.692;8.186;2023-03-23T05:26:21;97935.41;;;13.78;66.25
59531;BME280;45349;48.692;8.186;2023-03-23T05:28:50;97933.84;;;13.62;68.51
59531;BME280;45349;48.692;8.186;2023-03-23T05:31:22;97935.16;;;13.51;66.20
59531;BME280;45349;48.692;8.186;2023-03-23T05:33:49;97928.28;;;13.50;66.42
59531;BME280;45349;48.692;8.186;2023-03-23T05:36:29;97944.38;;;13.47;67.18
59531;BME280;45349;48.692;8.186;2023-03-23T05:39:07;97955.22;;;13.44;67.20
59531;BME280;45349;48.692;8.186;2023-03-23T05:42:02;97950.06;;;13.36;70.11
59531;BME280;45349;48.692;8.186;2023-03-23T05:44:40;97965.19;;;13.34;69.28
59531;BME280;45349;48.692;8.186;2023-03-23T05:47:08;97979.28;;;13.33;67.40
59531;BME280;45349;48.692;8.186;2023-03-23T05:49:38;97981.09;;;13.32;68.20
59531;BME280;45349;48.692;8.186;2023-03-23T05:52:08;97973.34;;;13.24;71.29
59531;BME280;45349;48.692;8.186;2023-03-23T05:54:34;97983.03;;;13.08;76.64
59531;BME280;45349;48.692;8.186;2023-03-23T05:57:02;97976.09;;;13.01;76.57
59531;BME280;45349;48.692;8.186;2023-03-23T05:59:44;97979.97;;;12.90;75.30
59531;BME280;45349;48.692;8.186;2023-03-23T06:02:17;97991.44;;;12.89;73.57
59531;BME280;45349;48.692;8.186;2023-03-23T06:04:44;97982.22;;;12.93;72.46
59531;BME280;45349;48.692;8.186;2023-03-23T06:07:25;97983.69;;;12.95;73.49
59531;BME280;45349;48.692;8.186;2023-03-23T06:09:58;97978.44;;;12.95;73.70
59531;BME280;45349;48.692;8.186;2023-03-23T06:12:29;97975.00;;;12.95;76.43
59531;BME280;45349;48.692;8.186;2023-03-23T06:15:18;97966.72;;;12.91;76.09
59531;BME280;45349;48.692;8.186;2023-03-23T06:18:07;97965.88;;;12.91;76.35
59531;BME280;45349;48.692;8.186;2023-03-23T06:20:43;97968.34;;;12.92;77.15
59531;BME280;45349;48.692;8.186;2023-03-23T06:23:30;97980.44;;;12.93;77.08
59531;BME280;45349;48.692;8.186;2023-03-23T06:25:58;97986.47;;;12.94;77.31
59531;BME280;45349;48.692;8.186;2023-03-23T06:28:27;97989.00;;;13.02;74.38
59531;BME280;45349;48.692;8.186;2023-03-23T06:30:55;98000.38;;;13.09;72.83
59531;BME280;45349;48.692;8.186;2023-03-23T06:33:24;97999.38;;;13.10;73.59
59531;BME280;45349;48.692;8.186;2023-03-23T06:36:17;98003.91;;;13.17;73.83
59531;BME280;45349;48.692;8.186;2023-03-23T06:38:50;98008.44;;;13.08;77.01
59531;BME280;45349;48.692;8.186;2023-03-23T06:41:22;98009.78;;;13.04;78.14
59531;BME280;45349;48.692;8.186;2023-03-23T06:43:52;98005.09;;;12.99;77.48
59531;BME280;45349;48.692;8.186;2023-03-23T06:46:24;98022.25;;;13.02;77.82
59531;BME280;45349;48.692;8.186;2023-03-23T06:48:55;98047.53;;;13.09;71.65
59531;BME280;45349;48.692;8.186;2023-03-23T06:51:30;98053.34;;;13.05;77.01
59531;BME280;45349;48.692;8.186;2023-03-23T06:53:57;98052.69;;;12.88;77.54
59531;BME280;45349;48.692;8.186;2023-03-23T06:56:26;98050.78;;;12.66;80.21
59531;BME280;45349;48.692;8.186;2023-03-23T06:58:55;98049.69;;;12.61;82.43
59531;BME280;45349;48.692;8.186;2023-03-23T07:01:23;98070.66;;;12.61;80.61
59531;BME280;45349;48.692;8.186;2023-03-23T07:03:57;98064.06;;;12.42;80.58
59531;BME280;45349;48.692;8.186;2023-03-23T07:06:35;98053.72;;;12.48;80.52
59531;BME280;45349;48.692;8.186;2023-03-23T07:09:04;98069.00;;;12.60;80.15
59531;BME280;45349;48.692;8.186;2023-03-23T07:11:32;98086.34;;;12.61;80.12
59531;BME280;45349;48.692;8.186;2023-03-23T07:14:05;98091.88;;;12.43;84.71
59531;BME280;45349;48.692;8.186;2023-03-23T07:16:32;98096.81;;;12.37;87.72
59531;BME280;45349;48.692;8.186;2023-03-23T07:18:59;98080.31;;;12.37;89.89
59531;BME280;45349;48.692;8.186;2023-03-23T07:21:26;98067.47;;;12.50;87.78
59531;BME280;45349;48.692;8.186;2023-03-23T07:23:53;98060.97;;;12.61;80.36
59531;BME280;45349;48.692;8.186;2023-03-23T07:26:36;98057.72;;;12.74;80.94
59531;BME280;45349;48.692;8.186;2023-03-23T07:29:03;98057.91;;;12.73;85.72
59531;BME280;45349;48.692;8.186;2023-03-23T07:31:37;98070.03;;;12.74;86.00
59531;BME280;45349;48.692;8.186;2023-03-23T07:34:04;98073.00;;;12.70;81.86
59531;BME280;45349;48.692;8.186;2023-03-23T07:36:41;98073.72;;;12.79;81.67
59531;BME280;45349;48.692;8.186;2023-03-23T07:39:09;98073.72;;;12.79;83.21
59531;BME280;45349;48.692;8.186;2023-03-23T07:41:36;98068.75;;;12.84;86.14
59531;BME280;45349;48.692;8.186;2023-03-23T07:44:13;98083.41;;;12.79;84.99
59531;BME280;45349;48.692;8.186;2023-03-23T07:46:43;98093.16;;;12.85;79.53
59531;BME280;45349;48.692;8.186;2023-03-23T07:49:15;98081.78;;;12.78;78.54
59531;BME280;45349;48.692;8.186;2023-03-23T07:51:48;98086.09;;;12.85;80.68
59531;BME280;45349;48.692;8.186;2023-03-23T07:54:16;98095.94;;;12.83;82.76
59531;BME280;45349;48.692;8.186;2023-03-23T07:57:01;98096.41;;;12.87;82.76
59531;BME280;45349;48.692;8.186;2023-03-23T07:59:35;98107.06;;;12.85;79.56
59531;BME280;45349;48.692;8.186;2023-03-23T08:02:04;98093.53;;;12.97;77.76
59531;BME280;45349;48.692;8.186;2023-03-23T08:04:37;98095.44;;;13.03;79.06
59531;BME280;45349;48.692;8.186;2023-03-23T08:07:14;98102.41;;;13.26;77.21
59531;BME280;45349;48.692;8.186;2023-03-23T08:10:05;98108.81;;;13.23;75.83
59531;BME280;45349;48.692;8.186;2023-03-23T08:12:35;98097.63;;;13.45;74.18
59531;BME280;45349;48.692;8.186;2023-03-23T08:15:16;98112.28;;;13.54;72.51
59531;BME280;45349;48.692;8.186;2023-03-23T08:17:58;98106.47;;;13.58;72.49
59531;BME280;45349;48.692;8.186;2023-03-23T08:20:45;98102.00;;;13.74;73.63
59531;BME280;45349;48.692;8.186;2023-03-23T08:23:31;98122.06;;;13.82;72.36
59531;BME280;45349;48.692;8.186;2023-03-23T08:26:22;98127.34;;;13.67;74.69
59531;BME280;45349;48.692;8.186;2023-03-23T08:29:07;98119.00;;;13.78;74.25
59531;BME280;45349;48.692;8.186;2023-03-23T08:31:52;98122.69;;;13.84;71.63
59531;BME280;45349;48.692;8.186;2023-03-23T08:34:38;98134.84;;;13.70;75.34
59531;BME280;45349;48.692;8.186;2023-03-23T08:37:23;98130.06;;;13.58;74.92
59531;BME280;45349;48.692;8.186;2023-03-23T08:40:12;98137.84;;;13.52;78.25
59531;BME280;45349;48.692;8.186;2023-03-23T08:43:08;98144.25;;;13.49;76.73
59531;BME280;45349;48.692;8.186;2023-03-23T08:45:54;98144.25;;;13.49;78.38
59531;BME280;45349;48.692;8.186;2023-03-23T08:48:40;98152.66;;;13.60;76.59
59531;BME280;45349;48.692;8.186;2023-03-23T08:51:25;98160.81;;;13.65;72.85
59531;BME280;45349;48.692;8.186;2023-03-23T08:54:14;98174.00;;;13.56;74.84
59531;BME280;45349;48.692;8.186;2023-03-23T08:56:52;98166.69;;;13.52;75.81
59531;BME280;45349;48.692;8.186;2023-03-23T08:59:41;98158.84;;;13.52;77.00
59531;BME280;45349;48.692;8.186;2023-03-23T09:02:28;98169.09;;;13.38;76.75
59531;BME280;45349;48.692;8.186;2023-03-23T09:05:12;98175.34;;;13.37;77.55
59531;BME280;45349;48.692;8.186;2023-03-23T09:08:03;98184.56;;;13.33;78.40
59531;BME280;45349;48.692;8.186;2023-03-23T09:10:30;98184.66;;;13.40;79.13
59531;BME280;45349;48.692;8.186;2023-03-23T09:12:57;98174.97;;;13.40;79.75
59531;BME280;45349;48.692;8.186;2023-03-23T09:15:27;98175.44;;;13.29;76.41
59531;BME280;45349;48.692;8.186;2023-03-23T09:17:53;98178.31;;;13.34;77.86
59531;BME280;45349;48.692;8.186;2023-03-23T09:20:23;98174.81;;;13.42;77.82
59531;BME280;45349;48.692;8.186;2023-03-23T09:22:52;98166.56;;;13.30;76.94
59531;BME280;45349;48.692;8.186;2023-03-23T09:25:22;98172.72;;;13.37;78.28
59531;BME280;45349;48.692;8.186;2023-03-23T09:27:52;98174.81;;;13.42;79.17
59531;BME280;45349;48.692;8.186;2023-03-23T09:30:22;98179.91;;;13.43;79.94
59531;BME280;45349;48.692;8.186;2023-03-23T09:32:49;98181.97;;;13.48;81.26
59531;BME280;45349;48.692;8.186;2023-03-23T09:35:16;98176.38;;;13.51;80.71
59531;BME280;45349;48.692;8.186;2023-03-23T09:37:44;98185.97;;;13.59;78.91
59531;BME280;45349;48.692;8.186;2023-03-23T09:40:14;98181.59;;;13.51;77.97
59531;BME280;45349;48.692;8.186;2023-03-23T09:43:07;98176.63;;;13.56;78.27
59531;BME280;45349;48.692;8.186;2023-03-23T09:45:43;98174.13;;;13.63;77.36
59531;BME280;45349;48.692;8.186;2023-03-23T09:48:33;98170.41;;;13.57;75.75
59531;BME280;45349;48.692;8.186;2023-03-23T09:51:11;98179.44;;;13.55;76.01
59531;BME280;45349;48.692;8.186;2023-03-23T09:53:41;98181.97;;;13.63;76.08
59531;BME280;45349;48.692;8.186;2023-03-23T09:56:12;98181.53;;;13.75;81.81
59531;BME280;45349;48.692;8.186;2023-03-23T09:58:46;98183.06;;;13.69;77.96
59531;BME280;45349;48.692;8.186;2023-03-23T10:01:17;98181.53;;;13.75;74.22
59531;BME280;45349;48.692;8.186;2023-03-23T10:03:46;98187.75;;;13.88;73.25
59531;BME280;45349;48.692;8.186;2023-03-23T10:06:16;98182.88;;;13.85;72.90
59531;BME280;45349;48.692;8.186;2023-03-23T10:08:47;98187.81;;;13.95;71.64
59531;BME280;45349;48.692;8.186;2023-03-23T10:11:22;98186.00;;;13.96;72.05
59531;BME280;45349;48.692;8.186;2023-03-23T10:14:06;98187.28;;;14.00;71.85
59531;BME280;45349;48.692;8.186;2023-03-23T10:16:39;98182.97;;;14.14;70.92
59531;BME280;45349;48.692;8.186;2023-03-23T10:19:11;98188.50;;;14.19;70.85
59531;BME280;45349;48.692;8.186;2023-03-23T10:21:42;98194.06;;;14.31;68.29
59531;BME280;45349;48.692;8.186;2023-03-23T10:24:15;98194.63;;;14.26;68.86
59531;BME280;45349;48.692;8.186;2023-03-23T10:26:48;98195.47;;;14.12;69.39
59531;BME280;45349;48.692;8.186;2023-03-23T10:29:23;98194.56;;;14.20;70.52
59531;BME280;45349;48.692;8.186;2023-03-23T10:31:55;98198.16;;;14.34;70.93
59531;BME280;45349;48.692;8.186;2023-03-23T10:34:28;98191.06;;;14.34;68.77
59531;BME280;45349;48.692;8.186;2023-03-23T10:37:02;98188.22;;;14.29;67.99
59531;BME280;45349;48.692;8.186;2023-03-23T10:39:41;98189.78;;;14.45;68.64
59531;BME280;45349;48.692;8.186;2023-03-23T10:42:10;98196.91;;;14.51;68.76
59531;BME280;45349;48.692;8.186;2023-03-23T10:44:38;98193.22;;;14.67;67.84
59531;BME280;45349;48.692;8.186;2023-03-23T10:47:06;98197.00;;;14.80;68.58
59531;BME280;45349;48.692;8.186;2023-03-23T10:49:37;98191.88;;;14.93;69.67
59531;BME280;45349;48.692;8.186;2023-03-23T10:52:20;98191.25;;;14.91;71.32
59531;BME280;45349;48.692;8.186;2023-03-23T10:54:54;98184.03;;;15.28;69.26
59531;BME280;45349;48.692;8.186;2023-03-23T10:57:23;98179.06;;;15.12;68.88
59531;BME280;45349;48.692;8.186;2023-03-23T10:59:58;98186.72;;;15.07;66.91
59531;BME280;45349;48.692;8.186;2023-03-23T11:02:25;98190.91;;;15.01;67.74
59531;BME280;45349;48.692;8.186;2023-03-23T11:04:59;98179.91;;;14.90;70.23
59531;BME280;45349;48.692;8.186;2023-03-23T11:07:28;98203.88;;;14.81;68.81
59531;BME280;45349;48.692;8.186;2023-03-23T11:09:56;98206.88;;;14.78;70.19
59531;BME280;45349;48.692;8.186;2023-03-23T11:12:24;98202.38;;;14.71;72.15
59531;BME280;45349;48.692;8.186;2023-03-23T11:15:04;98197.38;;;14.76;71.04
59531;BME280;45349;48.692;8.186;2023-03-23T11:17:30;98207.19;;;14.68;72.11
59531;BME280;45349;48.692;8.186;2023-03-23T11:19:57;98202.09;;;14.81;71.43
59531;BME280;45349;48.692;8.186;2023-03-23T11:22:26;98201.13;;;14.89;70.28
59531;BME280;45349;48.692;8.186;2023-03-23T11:24:55;98214.63;;;14.86;71.51
59531;BME280;45349;48.692;8.186;2023-03-23T11:27:23;98205.47;;;14.75;72.88
59531;BME280;45349;48.692;8.186;2023-03-23T11:29:54;98203.09;;;14.80;69.98
59531;BME280;45349;48.692;8.186;2023-03-23T11:32:24;98212.34;;;14.76;75.67
59531;BME280;45349;48.692;8.186;2023-03-23T11:34:54;98207.38;;;14.88;72.05
59531;BME280;45349;48.692;8.186;2023-03-23T11:37:27;98207.63;;;14.71;74.80
59531;BME280;45349;48.692;8.186;2023-03-23T11:39:56;98206.50;;;14.81;75.91
59531;BME280;45349;48.692;8.186;2023-03-23T11:42:25;98212.06;;;14.93;73.84
59531;BME280;45349;48.692;8.186;2023-03-23T11:45:13;98205.88;;;15.00;75.62
59531;BME280;45349;48.692;8.186;2023-03-23T11:47:45;98203.84;;;15.24;76.61
59531;BME280;45349;48.692;8.186;2023-03-23T11:50:17;98198.56;;;15.53;74.38
59531;BME280;45349;48.692;8.186;2023-03-23T11:52:48;98198.31;;;15.83;73.87
59531;BME280;45349;48.692;8.186;2023-03-23T11:55:19;98203.84;;;16.01;72.42
59531;BME280;45349;48.692;8.186;2023-03-23T11:57:47;98192.69;;;15.92;71.58
59531;BME280;45349;48.692;8.186;2023-03-23T12:00:18;98191.69;;;15.93;70.68
59531;BME280;45349;48.692;8.186;2023-03-23T12:02:52;98188.09;;;16.08;71.03
59531;BME280;45349;48.692;8.186;2023-03-23T12:05:45;98183.31;;;16.32;70.93
59531;BME280;45349;48.692;8.186;2023-03-23T12:11:09;98167.66;;;16.17;67.79
59531;BME280;45349;48.692;8.186;2023-03-23T12:13:56;98167.69;;;16.23;69.04
59531;BME280;45349;48.692;8.186;2023-03-23T12:16:38;98168.19;;;15.92;69.91
59531;BME280;45349;48.692;8.186;2023-03-23T12:19:16;98174.41;;;15.77;71.73
59531;BME280;45349;48.692;8.186;2023-03-23T12:21:54;98167.59;;;15.55;70.27
59531;BME280;45349;48.692;8.186;2023-03-23T12:24:40;98163.28;;;15.47;70.86
59531;BME280;45349;48.692;8.186;2023-03-23T12:27:15;98159.72;;;15.55;72.07
59531;BME280;45349;48.692;8.186;2023-03-23T12:30:02;98162.38;;;15.61;70.91
59531;BME280;45349;48.692;8.186;2023-03-23T12:32:50;98149.66;;;15.65;69.34
59531;BME280;45349;48.692;8.186;2023-03-23T12:35:30;98156.22;;;15.47;70.91
59531;BME280;45349;48.692;8.186;2023-03-23T12:38:10;98151.38;;;15.51;70.82
59531;BME280;45349;48.692;8.186;2023-03-23T12:40:51;98142.81;;;15.77;70.74
59531;BME280;45349;48.692;8.186;2023-03-23T12:43:26;98141.50;;;16.08;69.83
59531;BME280;45349;48.692;8.186;2023-03-23T12:46:15;98143.56;;;16.13;67.90
59531;BME280;45349;48.692;8.186;2023-03-23T12:48:48;98143.38;;;16.28;69.44
59531;BME280;45349;48.692;8.186;2023-03-23T12:51:22;98138.16;;;16.35;67.56
59531;BME280;45349;48.692;8.186;2023-03-23T12:53:55;98137.78;;;16.85;66.28
59531;BME280;45349;48.692;8.186;2023-03-23T12:56:28;98136.75;;;16.86;65.89
59531;BME280;45349;48.692;8.186;2023-03-23T12:59:03;98134.09;;;16.93;66.71
59531;BME280;45349;48.692;8.186;2023-03-23T13:01:35;98135.53;;;16.89;65.83
59531;BME280;45349;48.692;8.186;2023-03-23T13:04:08;98125.78;;;16.96;64.02
59531;BME280;45349;48.692;8.186;2023-03-23T13:06:38;98126.00;;;16.88;64.70
59531;BME280;45349;48.692;8.186;2023-03-23T13:09:11;98124.78;;;16.77;64.74
59531;BME280;45349;48.692;8.186;2023-03-23T13:11:41;98123.38;;;16.81;63.07
59531;BME280;45349;48.692;8.186;2023-03-23T13:14:20;98112.03;;;16.60;65.28
59531;BME280;45349;48.692;8.186;2023-03-23T13:16:58;98110.19;;;16.81;65.30
59531;BME280;45349;48.692;8.186;2023-03-23T13:19:33;98110.81;;;17.03;63.30
59531;BME280;45349;48.692;8.186;2023-03-23T13:22:07;98098.84;;;16.80;63.76
59531;BME280;45349;48.692;8.186;2023-03-23T13:24:44;98098.03;;;16.66;65.03
59531;BME280;45349;48.692;8.186;2023-03-23T13:27:12;98094.78;;;16.58;65.17
59531;BME280;45349;48.692;8.186;2023-03-23T13:29:44;98100.88;;;16.58;65.94
59531;BME280;45349;48.692;8.186;2023-03-23T13:32:14;98090.72;;;16.62;65.26
59531;BME280;45349;48.692;8.186;2023-03-23T13:34:43;98101.28;;;16.62;64.70
59531;BME280;45349;48.692;8.186;2023-03-23T13:37:12;98091.75;;;16.34;65.92
59531;BME280;45349;48.692;8.186;2023-03-23T13:39:49;98094.97;;;16.29;66.01